createdAt,value
2023-02-03T00:03:41.053Z,2.16
2023-02-03T00:08:43.678Z,2.09
2023-02-03T00:13:46.132Z,2.33
2023-02-03T00:18:48.645Z,2.47
2023-02-03T00:23:51.191Z,2.43
2023-02-03T00:28:53.695Z,2.59
2023-02-03T00:33:57.457Z,2.72
2023-02-03T00:39:01.424Z,2.65
2023-02-03T00:44:04.280Z,2.56
2023-02-03T00:49:07.437Z,2.60
2023-02-03T00:54:11.366Z,2.44
2023-02-03T00:59:13.904Z,2.39
2023-02-03T01:04:16.333Z,2.29
2023-02-03T01:09:18.794Z,2.19
2023-02-03T01:14:21.206Z,2.12
2023-02-03T01:19:24.047Z,1.87
2023-02-03T01:24:26.515Z,1.70
2023-02-03T01:29:28.926Z,1.76
2023-02-03T01:34:31.320Z,1.76
2023-02-03T01:39:34.804Z,1.75
2023-02-03T01:44:48.017Z,1.73
2023-02-03T01:49:56.703Z,1.45
2023-02-03T01:55:02.907Z,1.36
2023-02-03T02:00:08.304Z,1.26
2023-02-03T02:05:25.996Z,1.21
2023-02-03T02:10:30.663Z,1.23
2023-02-03T02:15:55.429Z,1.26
2023-02-03T02:21:32.832Z,1.14
2023-02-03T02:27:12.360Z,1.01
2023-02-03T02:32:36.123Z,0.87
2023-02-03T02:37:51.389Z,0.71
2023-02-03T02:43:11.295Z,0.54
2023-02-03T02:48:20.644Z,0.36
2023-02-03T02:53:27.489Z,0.32
2023-02-03T02:58:32.446Z,0.35
2023-02-03T03:03:35.198Z,0.19
2023-02-03T03:09:01.655Z,0.10
2023-02-03T03:14:06.907Z,0.10
2023-02-03T03:19:13.127Z,0.04
2023-02-03T03:24:22.851Z,0.12
2023-02-03T03:29:31.578Z,-0.01
2023-02-03T03:34:34.721Z,0.03
2023-02-03T03:39:54.387Z,-0.12
2023-02-03T03:45:15.521Z,-0.13
2023-02-03T03:50:27.027Z,-0.10
2023-02-03T03:55:33.622Z,-0.19
2023-02-03T04:00:39.862Z,-0.29
2023-02-03T04:05:42.962Z,-0.43
2023-02-03T04:10:45.749Z,-0.47
2023-02-03T04:15:48.362Z,-0.48
2023-02-03T04:20:51.246Z,-0.72
2023-02-03T04:25:53.907Z,-0.82
2023-02-03T04:30:56.313Z,-0.91
2023-02-03T04:35:58.765Z,-0.99
2023-02-03T04:41:01.176Z,-0.98
2023-02-03T04:46:05.476Z,-0.95
2023-02-03T04:51:09.381Z,-0.83
2023-02-03T04:56:12.013Z,-0.83
2023-02-03T05:01:14.598Z,-0.76
2023-02-03T05:06:17.187Z,-0.70
2023-02-03T05:11:19.825Z,-0.81
2023-02-03T05:16:22.523Z,-0.61
2023-02-03T05:21:25.094Z,-0.39
2023-02-03T05:26:27.592Z,-0.25
2023-02-03T05:31:30.080Z,-0.04
2023-02-03T05:36:32.846Z,0.11
2023-02-03T05:41:54.116Z,0.15
2023-02-03T05:46:59.348Z,0.40
2023-02-03T05:52:01.886Z,0.47
2023-02-03T05:57:04.395Z,0.33
2023-02-03T06:02:06.978Z,0.64
2023-02-03T06:07:09.497Z,0.57
2023-02-03T06:12:12.019Z,0.80
2023-02-03T06:17:14.508Z,0.87
2023-02-03T06:22:16.883Z,0.97
2023-02-03T06:27:19.507Z,0.90
2023-02-03T06:32:22.124Z,0.85
2023-02-03T06:37:24.956Z,1.12
2023-02-03T06:42:27.897Z,1.78
2023-02-03T06:47:30.543Z,2.11
2023-02-03T06:52:33.078Z,2.21
2023-02-03T06:57:35.674Z,3.07
2023-02-03T07:02:38.226Z,3.40
2023-02-03T07:07:40.858Z,3.30
2023-02-03T07:12:44.998Z,3.41
2023-02-03T07:17:54.861Z,3.20
2023-02-03T07:22:58.730Z,3.64
2023-02-03T07:28:01.849Z,4.36
2023-02-03T07:33:04.714Z,4.68
2023-02-03T07:38:07.278Z,5.57
2023-02-03T07:43:09.788Z,6.53
2023-02-03T07:48:13.254Z,6.85
2023-02-03T07:53:16.059Z,6.42
2023-02-03T07:58:18.586Z,6.49
2023-02-03T08:03:21.117Z,6.36
2023-02-03T08:08:23.623Z,6.89
2023-02-03T08:13:26.183Z,7.21
2023-02-03T08:18:30.942Z,6.98
2023-02-03T08:23:34.790Z,7.36
2023-02-03T08:28:37.383Z,7.35
2023-02-03T08:33:40.062Z,7.38
2023-02-03T08:38:42.639Z,7.30
2023-02-03T08:43:45.887Z,7.30
2023-02-03T08:48:48.361Z,6.90
2023-02-03T08:53:50.915Z,7.01
2023-02-03T08:58:55.918Z,6.89
2023-02-03T09:03:58.497Z,6.89
2023-02-03T09:09:01.156Z,6.89
2023-02-03T09:14:07.458Z,6.91
2023-02-03T09:19:10.223Z,7.10
2023-02-03T09:24:12.639Z,6.96
2023-02-03T09:29:15.218Z,7.23
2023-02-03T09:34:17.935Z,7.48
2023-02-03T09:39:20.453Z,7.28
2023-02-03T09:44:43.099Z,7.40
2023-02-03T09:50:01.965Z,7.22
2023-02-03T09:55:20.821Z,7.10
2023-02-03T10:00:31.150Z,7.55
2023-02-03T10:05:33.538Z,7.81
2023-02-03T10:11:12.751Z,7.87
2023-02-03T10:16:30.304Z,7.84
2023-02-03T10:21:47.475Z,7.87
2023-02-03T10:26:51.370Z,8.13
2023-02-03T10:31:58.886Z,8.42
2023-02-03T10:37:23.213Z,8.17
2023-02-03T10:42:25.972Z,8.02
2023-02-03T10:47:44.011Z,7.59
2023-02-03T10:52:47.125Z,7.72
2023-02-03T10:57:50.327Z,8.16
2023-02-03T11:03:42.137Z,8.14
2023-02-03T11:08:47.894Z,7.67
2023-02-03T11:14:02.546Z,8.08
2023-02-03T11:19:22.600Z,7.89
2023-02-03T11:24:25.031Z,7.70
2023-02-03T11:29:30.951Z,7.53
2023-02-03T11:34:34.853Z,7.25
2023-02-03T11:39:37.345Z,7.01
2023-02-03T11:44:39.734Z,6.69
2023-02-03T11:49:59.740Z,6.56
2023-02-03T11:55:21.254Z,6.58
2023-02-03T12:00:37.533Z,6.54
2023-02-03T12:06:02.747Z,6.37
2023-02-03T12:11:28.664Z,6.07
2023-02-03T12:16:43.257Z,6.01
2023-02-03T12:21:50.424Z,5.58
2023-02-03T12:27:07.251Z,5.43
2023-02-03T12:32:30.896Z,5.36
2023-02-03T12:37:51.593Z,5.28
2023-02-03T12:43:22.248Z,5.33
2023-02-03T12:48:39.610Z,5.21
2023-02-03T12:53:48.569Z,5.07
2023-02-03T12:58:57.790Z,5.06
2023-02-03T13:04:12.156Z,5.01
2023-02-03T13:09:29.411Z,5.09
2023-02-03T13:15:13.101Z,4.92
2023-02-03T13:20:21.779Z,4.92
2023-02-03T13:25:42.089Z,4.95
2023-02-03T13:31:24.050Z,4.69
2023-02-03T13:37:03.840Z,4.52
2023-02-03T13:42:24.515Z,4.26
2023-02-03T13:47:30.199Z,4.23
2023-02-03T13:52:47.840Z,4.02
2023-02-03T13:57:53.120Z,4.08
2023-02-03T14:02:56.925Z,3.99
2023-02-03T14:08:30.723Z,3.84
2023-02-03T14:13:33.127Z,3.95
2023-02-03T14:18:45.463Z,3.96
2023-02-03T14:23:57.777Z,3.82
2023-02-03T14:29:01.143Z,3.61
2023-02-03T14:34:14.784Z,3.70
2023-02-03T14:39:22.834Z,3.69
2023-02-03T14:44:55.076Z,3.60
2023-02-03T14:50:06.332Z,3.58
2023-02-03T14:55:40.993Z,3.65
2023-02-03T15:00:43.531Z,3.73
2023-02-03T15:05:48.359Z,3.68
2023-02-03T15:10:50.852Z,3.48
2023-02-03T15:15:56.071Z,3.56
2023-02-03T15:20:59.155Z,3.56
2023-02-03T15:26:04.134Z,3.62
2023-02-03T15:31:28.177Z,3.56
2023-02-03T15:36:52.499Z,3.62
2023-02-03T15:41:57.307Z,3.43
2023-02-03T15:47:03.148Z,3.40
2023-02-03T15:52:10.741Z,3.39
2023-02-03T15:57:19.058Z,3.26
2023-02-03T16:02:47.548Z,3.23
2023-02-03T16:07:50.022Z,3.36
2023-02-03T16:12:52.455Z,3.42
2023-02-03T16:17:58.238Z,3.24
2023-02-03T16:23:05.379Z,3.21
2023-02-03T16:28:32.035Z,3.25
2023-02-03T16:33:53.416Z,3.40
2023-02-03T16:39:14.676Z,3.28
2023-02-03T16:44:38.001Z,3.25
2023-02-03T16:49:59.237Z,3.18
2023-02-03T16:55:01.764Z,3.10
2023-02-03T17:00:06.451Z,3.14
2023-02-03T17:05:08.923Z,3.07
2023-02-03T17:10:12.065Z,2.98
2023-02-03T17:15:16.020Z,3.21
2023-02-03T17:20:18.711Z,3.31
2023-02-03T17:25:23.209Z,3.25
2023-02-03T17:30:26.763Z,3.24
2023-02-03T17:35:40.155Z,3.44
2023-02-03T17:56:54.571Z,3.17
2023-02-03T18:01:59.809Z,3.07
2023-02-03T18:07:04.968Z,2.72
2023-02-03T18:12:13.613Z,2.74
2023-02-03T18:17:15.903Z,2.76
2023-02-03T18:22:18.293Z,2.25
2023-02-03T18:27:25.817Z,2.07
2023-02-03T18:32:30.558Z,2.39
2023-02-03T18:37:33.056Z,2.13
2023-02-03T18:42:38.469Z,2.09
2023-02-03T18:47:43.684Z,2.03
2023-02-03T18:52:54.149Z,1.99
2023-02-03T18:57:59.698Z,1.84
2023-02-03T19:03:02.197Z,1.86
2023-02-03T19:08:04.671Z,1.77
2023-02-03T19:13:10.241Z,1.90
2023-02-03T19:18:12.797Z,1.79
2023-02-03T19:23:18.094Z,1.58
2023-02-03T19:28:30.465Z,1.57
2023-02-03T19:33:37.140Z,1.58
2023-02-03T19:38:39.762Z,1.55
2023-02-03T19:43:42.246Z,1.71
2023-02-03T19:48:47.080Z,1.78
2023-02-03T19:53:54.776Z,1.67
2023-02-03T19:58:57.246Z,1.76
2023-02-03T20:04:00.257Z,1.92
2023-02-03T20:09:04.441Z,1.72
2023-02-03T20:14:06.986Z,1.63
2023-02-03T20:19:09.426Z,1.56
2023-02-03T20:24:12.132Z,1.57
2023-02-03T20:29:14.656Z,1.62
2023-02-03T20:34:17.170Z,1.38
2023-02-03T20:39:20.995Z,1.39
2023-02-03T20:44:23.538Z,1.49
2023-02-03T20:49:26.224Z,1.30
2023-02-03T20:54:28.682Z,1.48
2023-02-03T20:59:32.051Z,1.69
2023-02-03T21:04:53.196Z,1.43
2023-02-03T21:09:57.774Z,1.21
2023-02-03T21:15:00.298Z,1.35
2023-02-03T21:20:02.688Z,1.63
2023-02-03T21:25:07.406Z,1.38
2023-02-03T21:30:35.497Z,1.62
2023-02-03T21:35:38.618Z,1.84
2023-02-03T21:40:41.278Z,1.52
2023-02-03T21:45:44.678Z,1.31
2023-02-03T21:50:47.225Z,1.40
2023-02-03T21:55:49.796Z,1.30
2023-02-03T22:00:57.529Z,1.26
2023-02-03T22:06:09.240Z,1.19
2023-02-03T22:11:12.000Z,1.19
2023-02-03T22:16:17.464Z,1.18
2023-02-03T22:21:20.071Z,1.53
2023-02-03T22:26:22.881Z,1.82
2023-02-03T22:31:25.360Z,1.63
2023-02-03T22:36:27.964Z,1.37
2023-02-03T22:41:30.463Z,1.38
2023-02-03T22:46:32.937Z,1.25
2023-02-03T22:51:35.346Z,1.34
2023-02-03T22:56:37.814Z,1.38
2023-02-03T23:01:40.245Z,1.09
2023-02-03T23:06:42.659Z,1.11
2023-02-03T23:11:45.294Z,1.15
2023-02-03T23:16:47.757Z,1.12
2023-02-03T23:21:50.352Z,1.02
2023-02-03T23:26:52.853Z,1.02
2023-02-03T23:31:55.329Z,0.98
2023-02-03T23:37:00.046Z,0.91
2023-02-03T23:42:02.484Z,0.91
2023-02-03T23:47:05.020Z,1.04
2023-02-03T23:52:07.497Z,1.02
2023-02-03T23:57:10.044Z,0.84
